Time;durP1;ratioP1;P1;durP2;ratioP2;P2;SDS_P1;SDS_P2;PMS_P1;PMS_P2;Temp;Humidity;BMP_temperature;BMP_pressure;BME280_temperature;BME280_humidity;BME280_pressure;Samples;Min_cycle;Max_cycle;Signal;HPM_P1;HPM_P2
2022/04/08 00:01:37;;;;;;;14.07;1.63;;;;;;;;;;5085467;28;20105;-73
2022/04/08 00:04:04;;;;;;;14.75;1.67;;;;;;;;;;5079406;28;20055;-73
2022/04/08 00:06:32;;;;;;;9.98;1.35;;;;;;;;;;5079169;28;20071;-73
2022/04/08 00:08:59;;;;;;;12.02;1.88;;;;;;;;;;5083671;28;20101;-73
2022/04/08 00:11:27;;;;;;;12.75;1.48;;;;;;;;;;5085321;28;20063;-73
2022/04/08 00:13:55;;;;;;;16.85;2.35;;;;;;;;;;5084594;28;20775;-73
2022/04/08 00:16:22;;;;;;;12.00;1.40;;;;;;;;;;5086059;28;20048;-73
2022/04/08 00:18:50;;;;;;;15.18;1.50;;;;;;;;;;5086596;28;20044;-73
2022/04/08 00:21:17;;;;;;;19.00;2.22;;;;;;;;;;5086340;28;20052;-73
2022/04/08 00:23:45;;;;;;;20.00;2.28;;;;;;;;;;5085742;28;21783;-73
2022/04/08 00:26:12;;;;;;;22.75;2.55;;;;;;;;;;5083749;28;20411;-72
2022/04/08 00:28:41;;;;;;;17.90;1.65;;;;;;;;;;5084146;28;20097;-72
2022/04/08 00:31:08;;;;;;;11.88;2.28;;;;;;;;;;5085105;28;20113;-72
2022/04/08 00:33:35;;;;;;;11.75;1.10;;;;;;;;;;5084416;28;20120;-72
2022/04/08 00:36:02;;;;;;;12.38;1.25;;;;;;;;;;5085069;28;20052;-72
2022/04/08 00:38:29;;;;;;;16.13;1.80;;;;;;;;;;5084344;28;20047;-72
2022/04/08 00:40:57;;;;;;;17.27;1.75;;;;;;;;;;5085767;28;20056;-72
2022/04/08 00:43:32;;;;;;;11.13;1.70;;;;;;;;;;5083865;28;20108;-72
2022/04/08 00:46:01;;;;;;;21.83;2.47;;;;;;;;;;5084625;28;20048;-72
2022/04/08 00:48:28;;;;;;;20.38;2.33;;;;;;;;;;5082359;28;20055;-72
2022/04/08 00:50:56;;;;;;;19.25;2.63;;;;;;;;;;5084963;28;20058;-72
2022/04/08 00:53:23;;;;;;;19.88;2.72;;;;;;;;;;5085126;28;20049;-72
2022/04/08 00:55:51;;;;;;;20.42;2.45;;;;;;;;;;5080996;28;20048;-72
2022/04/08 00:58:18;;;;;;;25.23;2.55;;;;;;;;;;5084858;28;20506;-72
2022/04/08 01:00:46;;;;;;;21.80;2.67;;;;;;;;;;5084608;28;20059;-72
2022/04/08 01:03:14;;;;;;;20.90;2.58;;;;;;;;;;5083733;28;20506;-72
2022/04/08 01:05:42;;;;;;;23.65;2.72;;;;;;;;;;5082870;28;20567;-72
2022/04/08 01:08:11;;;;;;;23.65;2.80;;;;;;;;;;5081580;28;20495;-72
2022/04/08 01:10:38;;;;;;;22.85;2.30;;;;;;;;;;5081328;28;20051;-72
2022/04/08 01:13:05;;;;;;;17.52;2.50;;;;;;;;;;5080439;28;20052;-72
2022/04/08 01:15:32;;;;;;;19.17;2.80;;;;;;;;;;5081490;28;20448;-72
2022/04/08 01:18:00;;;;;;;27.90;3.15;;;;;;;;;;5085869;28;20052;-72
2022/04/08 01:20:28;;;;;;;14.35;2.20;;;;;;;;;;5084911;28;20047;-72
2022/04/08 01:22:55;;;;;;;20.13;2.40;;;;;;;;;;5082724;28;20051;-72
2022/04/08 01:25:24;;;;;;;26.60;2.70;;;;;;;;;;5082434;28;20055;-72
2022/04/08 01:27:51;;;;;;;28.92;2.80;;;;;;;;;;5084147;28;20059;-72
2022/04/08 01:30:19;;;;;;;22.33;2.95;;;;;;;;;;5084967;28;20060;-72
2022/04/08 01:32:46;;;;;;;20.60;2.47;;;;;;;;;;5080083;28;20114;-72
2022/04/08 01:35:13;;;;;;;21.55;2.90;;;;;;;;;;5081672;28;20052;-72
2022/04/08 01:37:40;;;;;;;22.67;2.47;;;;;;;;;;5084429;28;20071;-73
2022/04/08 01:40:08;;;;;;;18.52;2.75;;;;;;;;;;5084522;28;20068;-73
2022/04/08 01:42:37;;;;;;;16.65;2.15;;;;;;;;;;5085486;28;20067;-73
2022/04/08 01:45:04;;;;;;;19.15;2.10;;;;;;;;;;5088574;28;20047;-72
2022/04/08 01:47:32;;;;;;;15.82;1.70;;;;;;;;;;5080993;28;20048;-72
2022/04/08 01:49:59;;;;;;;11.63;1.55;;;;;;;;;;5089092;28;20056;-72
2022/04/08 01:52:26;;;;;;;14.73;1.55;;;;;;;;;;5081693;28;20192;-72
2022/04/08 01:54:53;;;;;;;18.10;1.83;;;;;;;;;;5088617;28;20059;-72
2022/04/08 01:57:23;;;;;;;19.10;1.95;;;;;;;;;;5082312;28;20044;-72
2022/04/08 01:59:52;;;;;;;19.80;2.30;;;;;;;;;;5088057;28;20117;-72
2022/04/08 02:02:20;;;;;;;19.13;2.20;;;;;;;;;;5082568;28;20052;-72
2022/04/08 02:04:47;;;;;;;24.15;3.25;;;;;;;;;;5086349;28;20052;-72
2022/04/08 02:07:14;;;;;;;23.45;2.38;;;;;;;;;;5085319;28;20426;-72
2022/04/08 02:09:41;;;;;;;22.90;3.75;;;;;;;;;;5085600;28;20117;-72
2022/04/08 02:12:09;;;;;;;17.15;2.25;;;;;;;;;;5088777;28;20101;-72
2022/04/08 02:14:36;;;;;;;23.42;2.75;;;;;;;;;;5088897;28;20148;-72
2022/04/08 02:17:05;;;;;;;22.02;2.60;;;;;;;;;;5091524;28;20116;-72
2022/04/08 02:19:33;;;;;;;27.23;2.03;;;;;;;;;;5085977;28;20052;-72
2022/04/08 02:22:00;;;;;;;15.43;2.53;;;;;;;;;;5085846;28;20117;-72
2022/04/08 02:24:27;;;;;;;22.15;2.35;;;;;;;;;;5087161;28;20055;-72
2022/04/08 02:26:55;;;;;;;16.17;2.10;;;;;;;;;;5081341;28;20055;-72
2022/04/08 02:29:22;;;;;;;15.07;1.98;;;;;;;;;;5083519;28;20140;-72
2022/04/08 02:31:49;;;;;;;16.25;1.60;;;;;;;;;;5081714;28;20056;-72
2022/04/08 02:34:18;;;;;;;18.73;2.00;;;;;;;;;;5086062;28;20055;-72
2022/04/08 02:36:46;;;;;;;7.85;1.52;;;;;;;;;;5081113;28;20067;-72
2022/04/08 02:39:13;;;;;;;10.20;1.25;;;;;;;;;;5085220;28;20056;-72
2022/04/08 02:41:40;;;;;;;9.43;1.27;;;;;;;;;;5079851;28;20052;-72
2022/04/08 02:44:08;;;;;;;15.45;1.20;;;;;;;;;;5080859;28;20463;-72
2022/04/08 02:46:36;;;;;;;16.92;1.77;;;;;;;;;;5081530;28;20804;-72
2022/04/08 02:49:03;;;;;;;15.05;2.22;;;;;;;;;;5084476;28;20044;-72
2022/04/08 02:51:31;;;;;;;14.95;2.17;;;;;;;;;;5081141;28;20565;-72
2022/04/08 02:53:59;;;;;;;17.75;2.38;;;;;;;;;;5085886;28;20125;-72
2022/04/08 02:56:26;;;;;;;12.60;1.80;;;;;;;;;;5083259;28;20047;-72
2022/04/08 02:58:54;;;;;;;12.82;1.58;;;;;;;;;;5087496;28;20056;-72
2022/04/08 03:01:22;;;;;;;12.10;1.40;;;;;;;;;;5087357;28;20055;-72
2022/04/08 03:03:49;;;;;;;9.25;1.10;;;;;;;;;;5125560;27;20068;-72
2022/04/08 03:06:16;;;;;;;10.30;1.33;;;;;;;;;;5083968;28;20060;-72
2022/04/08 03:08:45;;;;;;;11.18;1.58;;;;;;;;;;5083695;28;20055;-73
2022/04/08 03:11:12;;;;;;;7.45;1.00;;;;;;;;;;5080907;28;20056;-72
2022/04/08 03:13:39;;;;;;;7.15;1.30;;;;;;;;;;5087035;28;20632;-72
2022/04/08 03:16:07;;;;;;;8.25;1.00;;;;;;;;;;5086801;28;20047;-72
2022/04/08 03:18:34;;;;;;;6.32;0.80;;;;;;;;;;5087707;28;20192;-72
2022/04/08 03:21:01;;;;;;;9.82;0.90;;;;;;;;;;5083701;28;20409;-72
2022/04/08 03:23:28;;;;;;;2.90;0.80;;;;;;;;;;5086270;28;20051;-72
2022/04/08 03:25:57;;;;;;;5.88;0.90;;;;;;;;;;5087239;28;20060;-72
2022/04/08 03:28:24;;;;;;;8.38;0.82;;;;;;;;;;5089406;28;20052;-72
2022/04/08 03:30:51;;;;;;;6.65;1.38;;;;;;;;;;5086423;28;20056;-72
2022/04/08 03:33:19;;;;;;;4.95;0.90;;;;;;;;;;5084990;28;20047;-72
2022/04/08 03:35:46;;;;;;;7.50;0.93;;;;;;;;;;5084597;28;20089;-72
2022/04/08 03:38:13;;;;;;;5.65;0.70;;;;;;;;;;5086428;28;20044;-72
2022/04/08 03:40:40;;;;;;;7.95;0.90;;;;;;;;;;5083432;28;20059;-72
2022/04/08 03:43:09;;;;;;;5.05;0.73;;;;;;;;;;5083036;28;20052;-72
2022/04/08 03:45:36;;;;;;;5.40;1.02;;;;;;;;;;5086219;28;20044;-72
2022/04/08 03:48:04;;;;;;;5.97;0.75;;;;;;;;;;5084182;28;20039;-72
2022/04/08 03:50:31;;;;;;;4.50;0.70;;;;;;;;;;5085885;28;20533;-72
2022/04/08 03:52:59;;;;;;;7.00;1.48;;;;;;;;;;5079269;28;20056;-72
2022/04/08 03:55:26;;;;;;;6.85;1.00;;;;;;;;;;5083431;28;20060;-72
2022/04/08 03:57:53;;;;;;;8.27;1.10;;;;;;;;;;5087415;28;20055;-72
2022/04/08 04:00:22;;;;;;;7.50;1.20;;;;;;;;;;5087155;28;20584;-71
2022/04/08 04:02:49;;;;;;;10.52;1.77;;;;;;;;;;5081243;28;20774;-72
2022/04/08 04:05:16;;;;;;;12.15;1.52;;;;;;;;;;5080285;28;20529;-72
2022/04/08 04:07:44;;;;;;;10.02;1.38;;;;;;;;;;5084149;28;20418;-72
2022/04/08 04:10:12;;;;;;;12.45;1.45;;;;;;;;;;5086000;28;20075;-72
2022/04/08 04:12:39;;;;;;;7.38;1.00;;;;;;;;;;5083366;28;20130;-72
2022/04/08 04:15:08;;;;;;;5.47;0.80;;;;;;;;;;5081199;28;20083;-72
2022/04/08 04:17:36;;;;;;;7.97;0.80;;;;;;;;;;5084549;28;20060;-72
2022/04/08 04:20:04;;;;;;;7.50;1.20;;;;;;;;;;5085964;28;20060;-72
2022/04/08 04:22:32;;;;;;;4.00;0.90;;;;;;;;;;5084587;28;20129;-72
2022/04/08 04:24:59;;;;;;;7.72;1.23;;;;;;;;;;5086148;28;20055;-72
2022/04/08 04:27:26;;;;;;;6.88;1.00;;;;;;;;;;5085027;28;20521;-72
2022/04/08 04:29:53;;;;;;;8.13;1.20;;;;;;;;;;5084852;28;20064;-72
2022/04/08 04:32:20;;;;;;;9.50;1.15;;;;;;;;;;5084231;28;20048;-72
2022/04/08 04:34:49;;;;;;;12.25;1.10;;;;;;;;;;5083695;28;20049;-72
2022/04/08 04:37:17;;;;;;;9.23;1.50;;;;;;;;;;5087268;28;20502;-72
2022/04/08 04:39:44;;;;;;;7.50;1.10;;;;;;;;;;5115103;27;20052;-72
2022/04/08 04:42:11;;;;;;;8.15;1.00;;;;;;;;;;5086704;28;20089;-72
2022/04/08 04:44:38;;;;;;;6.03;1.30;;;;;;;;;;5083844;28;20052;-72
2022/04/08 04:47:06;;;;;;;12.82;1.52;;;;;;;;;;5078122;28;20059;-72
2022/04/08 04:49:33;;;;;;;13.70;1.50;;;;;;;;;;5082750;28;20518;-72
2022/04/08 04:52:02;;;;;;;11.48;1.40;;;;;;;;;;5112103;27;21129;-72
2022/04/08 04:54:29;;;;;;;9.10;1.38;;;;;;;;;;5091055;28;20056;-72
2022/04/08 04:56:56;;;;;;;11.82;1.55;;;;;;;;;;5083610;28;20056;-72
2022/04/08 04:59:23;;;;;;;12.93;1.50;;;;;;;;;;5091712;28;20051;-72
2022/04/08 05:01:51;;;;;;;11.88;1.75;;;;;;;;;;5081017;28;20051;-72
2022/04/08 05:04:18;;;;;;;9.93;1.33;;;;;;;;;;5085044;28;20056;-72
2022/04/08 05:06:45;;;;;;;10.73;1.50;;;;;;;;;;5118837;27;20158;-72
2022/04/08 05:09:14;;;;;;;6.25;1.02;;;;;;;;;;5088924;28;20055;-72
2022/04/08 05:11:41;;;;;;;11.20;1.75;;;;;;;;;;5090973;28;20438;-72
2022/04/08 05:14:08;;;;;;;9.05;1.45;;;;;;;;;;5078355;28;20051;-72
2022/04/08 05:16:35;;;;;;;10.43;1.23;;;;;;;;;;5112196;27;20044;-72
2022/04/08 05:19:03;;;;;;;11.50;1.40;;;;;;;;;;5077126;28;20101;-72
2022/04/08 05:21:30;;;;;;;8.88;1.50;;;;;;;;;;5083877;28;20631;-72
2022/04/08 05:23:57;;;;;;;10.80;1.20;;;;;;;;;;5083671;28;20477;-72
2022/04/08 05:26:26;;;;;;;8.13;1.33;;;;;;;;;;5080455;28;20907;-72
2022/04/08 05:28:53;;;;;;;11.13;2.17;;;;;;;;;;5082097;28;20048;-73
2022/04/08 05:31:20;;;;;;;7.50;1.20;;;;;;;;;;5078270;28;20059;-72
2022/04/08 05:33:47;;;;;;;10.02;1.25;;;;;;;;;;5081314;28;20531;-72
2022/04/08 05:36:15;;;;;;;9.50;2.30;;;;;;;;;;5082704;28;20436;-73
2022/04/08 05:38:42;;;;;;;9.75;1.70;;;;;;;;;;5084020;28;20055;-73
2022/04/08 05:41:09;;;;;;;11.95;1.50;;;;;;;;;;5116915;27;20048;-72
2022/04/08 05:43:38;;;;;;;13.43;1.50;;;;;;;;;;5080029;28;20062;-72
2022/04/08 05:46:05;;;;;;;11.95;1.65;;;;;;;;;;5079899;28;21297;-72
2022/04/08 05:48:32;;;;;;;12.43;1.98;;;;;;;;;;5083064;28;20177;-72
2022/04/08 05:50:59;;;;;;;10.30;1.52;;;;;;;;;;5088306;28;20052;-72
2022/04/08 05:53:27;;;;;;;12.23;1.48;;;;;;;;;;5109523;27;20060;-72
2022/04/08 05:55:56;;;;;;;12.70;2.25;;;;;;;;;;5107941;28;20123;-72
2022/04/08 05:58:23;;;;;;;21.92;1.88;;;;;;;;;;5110965;28;20055;-72
2022/04/08 06:00:52;;;;;;;14.85;1.73;;;;;;;;;;5088390;28;20043;-73
2022/04/08 06:03:20;;;;;;;10.15;1.90;;;;;;;;;;5090223;28;20052;-73
2022/04/08 06:05:47;;;;;;;15.40;1.58;;;;;;;;;;5092248;28;20403;-73
2022/04/08 06:08:14;;;;;;;15.55;1.70;;;;;;;;;;5093085;28;20126;-73
2022/04/08 06:10:41;;;;;;;13.60;1.80;;;;;;;;;;5088585;28;20056;-72
2022/04/08 06:13:08;;;;;;;10.73;1.40;;;;;;;;;;5092028;28;20105;-72
2022/04/08 06:15:36;;;;;;;11.73;1.45;;;;;;;;;;5089112;28;20075;-72
2022/04/08 06:18:04;;;;;;;12.45;1.73;;;;;;;;;;5075976;28;20130;-72
2022/04/08 06:20:32;;;;;;;9.80;1.60;;;;;;;;;;5078699;28;20389;-72
2022/04/08 06:22:59;;;;;;;11.60;1.42;;;;;;;;;;5107104;27;22098;-74
2022/04/08 06:25:26;;;;;;;9.40;1.58;;;;;;;;;;5110846;27;20075;-72
2022/04/08 06:27:57;;;;;;;10.52;1.25;;;;;;;;;;5084220;28;20044;-72
2022/04/08 06:30:25;;;;;;;11.52;1.67;;;;;;;;;;5081084;28;20070;-72
2022/04/08 06:32:52;;;;;;;15.48;1.75;;;;;;;;;;5088804;28;20055;-72
2022/04/08 06:35:21;;;;;;;18.98;1.80;;;;;;;;;;5091738;28;20312;-72
2022/04/08 06:37:48;;;;;;;10.07;1.40;;;;;;;;;;5086948;28;20047;-72
2022/04/08 06:40:15;;;;;;;11.25;1.40;;;;;;;;;;5091949;28;20073;-72
2022/04/08 06:42:42;;;;;;;8.07;1.10;;;;;;;;;;5085981;28;20060;-72
2022/04/08 06:45:10;;;;;;;14.00;1.40;;;;;;;;;;5086805;28;20548;-73
2022/04/08 06:47:45;;;;;;;9.30;1.52;;;;;;;;;;5081771;28;20392;-73
2022/04/08 06:50:12;;;;;;;10.35;1.52;;;;;;;;;;5077310;28;20054;-72
2022/04/08 06:52:41;;;;;;;10.73;1.10;;;;;;;;;;5114539;27;20052;-72
2022/04/08 06:55:09;;;;;;;12.98;1.52;;;;;;;;;;5077882;28;20044;-72
2022/04/08 06:57:36;;;;;;;6.70;1.10;;;;;;;;;;5085907;28;20085;-72
2022/04/08 07:00:04;;;;;;;12.10;1.27;;;;;;;;;;5090544;28;20051;-72
2022/04/08 07:02:31;;;;;;;7.53;0.93;;;;;;;;;;5094673;28;20170;-72
2022/04/08 07:04:59;;;;;;;11.10;1.13;;;;;;;;;;5087267;28;20562;-72
2022/04/08 07:07:29;;;;;;;7.55;1.00;;;;;;;;;;5087797;28;20133;-72
2022/04/08 07:09:58;;;;;;;10.63;1.30;;;;;;;;;;5091422;28;20134;-72
2022/04/08 07:12:26;;;;;;;9.88;1.08;;;;;;;;;;5089735;28;20401;-72
2022/04/08 07:14:54;;;;;;;13.60;1.20;;;;;;;;;;5083825;28;20044;-72
2022/04/08 07:17:26;;;;;;;12.88;1.60;;;;;;;;;;5089392;28;20048;-72
2022/04/08 07:19:54;;;;;;;13.47;1.90;;;;;;;;;;5122582;27;20052;-72
2022/04/08 07:22:21;;;;;;;13.38;1.60;;;;;;;;;;5085104;28;20054;-72
2022/04/08 07:24:48;;;;;;;16.67;1.90;;;;;;;;;;5090842;28;20059;-72
2022/04/08 07:27:17;;;;;;;9.48;1.63;;;;;;;;;;5087563;28;21464;-72
2022/04/08 07:29:44;;;;;;;13.55;1.40;;;;;;;;;;5091404;28;20059;-72
2022/04/08 07:32:12;;;;;;;12.63;1.30;;;;;;;;;;5085763;28;20044;-72
2022/04/08 07:34:39;;;;;;;13.10;1.35;;;;;;;;;;5084067;28;20489;-72
2022/04/08 07:37:08;;;;;;;8.20;1.58;;;;;;;;;;5086546;28;20112;-72
2022/04/08 07:39:41;;;;;;;12.52;1.77;;;;;;;;;;5084782;28;20079;-72
2022/04/08 07:42:08;;;;;;;13.05;1.70;;;;;;;;;;5082510;28;20062;-72
2022/04/08 07:44:37;;;;;;;13.18;1.40;;;;;;;;;;5117386;27;20051;-72
2022/04/08 07:47:04;;;;;;;11.32;1.70;;;;;;;;;;5087646;28;20044;-72
2022/04/08 07:49:31;;;;;;;8.02;1.23;;;;;;;;;;5091467;28;20043;-72
2022/04/08 07:51:59;;;;;;;11.02;1.15;;;;;;;;;;5091670;28;20056;-72
2022/04/08 07:54:26;;;;;;;12.85;2.03;;;;;;;;;;5094378;28;20047;-72
2022/04/08 07:56:53;;;;;;;8.35;1.00;;;;;;;;;;5088737;28;20588;-72
2022/04/08 07:59:20;;;;;;;12.45;1.23;;;;;;;;;;5089248;28;20062;-72
2022/04/08 08:01:49;;;;;;;17.17;1.60;;;;;;;;;;5082435;28;20063;-72
2022/04/08 08:04:16;;;;;;;9.40;1.35;;;;;;;;;;5083332;28;20067;-72
2022/04/08 08:06:44;;;;;;;12.05;1.50;;;;;;;;;;5086161;28;20415;-73
2022/04/08 08:09:11;;;;;;;9.00;1.60;;;;;;;;;;5083091;28;20044;-72
2022/04/08 08:11:38;;;;;;;8.48;1.25;;;;;;;;;;5086759;28;20044;-72
2022/04/08 08:14:05;;;;;;;8.18;1.40;;;;;;;;;;5080711;28;20391;-73
2022/04/08 08:16:33;;;;;;;8.52;1.30;;;;;;;;;;5084518;28;20044;-72
2022/04/08 08:19:01;;;;;;;10.50;1.23;;;;;;;;;;5085612;28;20071;-73
2022/04/08 08:21:28;;;;;;;10.98;1.88;;;;;;;;;;5086321;28;20059;-72
2022/04/08 08:23:56;;;;;;;10.82;1.55;;;;;;;;;;5086942;28;20056;-72
2022/04/08 08:26:23;;;;;;;14.23;1.48;;;;;;;;;;5086344;28;20055;-72
2022/04/08 08:28:50;;;;;;;7.55;1.02;;;;;;;;;;5085489;28;20063;-72
2022/04/08 08:31:17;;;;;;;9.00;1.33;;;;;;;;;;5086333;28;20513;-72
2022/04/08 08:33:44;;;;;;;10.68;1.75;;;;;;;;;;5082681;28;20048;-72
2022/04/08 08:36:13;;;;;;;12.73;1.25;;;;;;;;;;5086141;28;20675;-72
2022/04/08 08:38:40;;;;;;;9.20;1.15;;;;;;;;;;5085622;28;20067;-72
2022/04/08 08:41:08;;;;;;;10.75;1.92;;;;;;;;;;5084356;28;20052;-72
2022/04/08 08:43:36;;;;;;;9.02;1.17;;;;;;;;;;5085197;28;20070;-72
2022/04/08 08:46:04;;;;;;;8.98;1.50;;;;;;;;;;5086022;28;20048;-72
2022/04/08 08:48:34;;;;;;;11.55;1.35;;;;;;;;;;5080129;28;20055;-72
2022/04/08 08:51:02;;;;;;;5.25;1.20;;;;;;;;;;5086730;28;20058;-72
2022/04/08 08:53:32;;;;;;;5.82;1.05;;;;;;;;;;5084173;28;20048;-72
2022/04/08 08:55:59;;;;;;;7.57;1.55;;;;;;;;;;5114311;27;20067;-72
2022/04/08 08:58:27;;;;;;;10.48;1.13;;;;;;;;;;5083251;28;20051;-72
2022/04/08 09:00:54;;;;;;;8.32;1.30;;;;;;;;;;5082691;28;20058;-72
2022/04/08 09:03:21;;;;;;;7.65;1.27;;;;;;;;;;5076641;28;20059;-72
2022/04/08 09:05:52;;;;;;;9.48;2.55;;;;;;;;;;5078386;28;20569;-72
2022/04/08 09:08:19;;;;;;;8.48;1.20;;;;;;;;;;5086024;28;20044;-72
2022/04/08 09:10:48;;;;;;;13.40;1.50;;;;;;;;;;5078615;28;20043;-72
2022/04/08 09:13:18;;;;;;;10.38;1.50;;;;;;;;;;5084238;28;20090;-72
2022/04/08 09:15:53;;;;;;;14.43;1.63;;;;;;;;;;5082248;28;20132;-72
2022/04/08 09:18:20;;;;;;;9.15;1.20;;;;;;;;;;5079896;28;20055;-72
2022/04/08 09:20:49;;;;;;;7.38;1.30;;;;;;;;;;5086414;28;20044;-72
2022/04/08 09:23:17;;;;;;;8.07;1.25;;;;;;;;;;5085143;28;20367;-72
2022/04/08 09:25:45;;;;;;;7.75;1.08;;;;;;;;;;5081182;28;20109;-72
2022/04/08 09:28:15;;;;;;;9.07;1.20;;;;;;;;;;5118482;27;20048;-72
2022/04/08 09:30:43;;;;;;;12.27;1.35;;;;;;;;;;5084927;28;20076;-72
2022/04/08 09:33:14;;;;;;;8.27;1.17;;;;;;;;;;5091368;28;20063;-72
2022/04/08 09:35:41;;;;;;;9.10;1.20;;;;;;;;;;5084449;28;20044;-72
2022/04/08 09:38:09;;;;;;;7.72;1.88;;;;;;;;;;5084960;28;20063;-72
2022/04/08 09:40:37;;;;;;;12.73;1.40;;;;;;;;;;5085342;28;20067;-72
2022/04/08 09:43:04;;;;;;;9.85;1.50;;;;;;;;;;5084613;28;20090;-72
2022/04/08 09:45:33;;;;;;;6.63;1.08;;;;;;;;;;5115939;28;20053;-72
2022/04/08 09:48:00;;;;;;;10.07;1.58;;;;;;;;;;5085832;28;20063;-72
2022/04/08 09:50:28;;;;;;;12.75;2.35;;;;;;;;;;5087633;28;20039;-72
2022/04/08 09:52:55;;;;;;;15.82;1.45;;;;;;;;;;5086885;28;20060;-72
2022/04/08 09:55:23;;;;;;;13.48;1.75;;;;;;;;;;5086916;28;20571;-73
2022/04/08 09:57:53;;;;;;;11.80;1.80;;;;;;;;;;5084572;28;20048;-72
2022/04/08 10:00:21;;;;;;;10.43;1.70;;;;;;;;;;5086354;28;20202;-72
2022/04/08 10:02:50;;;;;;;12.30;1.95;;;;;;;;;;5084963;28;20047;-73
2022/04/08 10:05:17;;;;;;;8.40;1.77;;;;;;;;;;5093902;28;20606;-73
2022/04/08 10:07:47;;;;;;;14.10;1.27;;;;;;;;;;5091266;28;20059;-73
2022/04/08 10:10:18;;;;;;;8.52;1.55;;;;;;;;;;5092089;28;20044;-73
2022/04/08 10:12:51;;;;;;;11.80;1.52;;;;;;;;;;5091719;28;20832;-73
2022/04/08 10:15:25;;;;;;;12.05;1.30;;;;;;;;;;5089426;28;20130;-73
2022/04/08 10:17:58;;;;;;;9.05;1.20;;;;;;;;;;5098085;28;20067;-73
2022/04/08 10:20:27;;;;;;;12.73;1.53;;;;;;;;;;5113342;27;20044;-73
2022/04/08 10:23:03;;;;;;;7.47;1.23;;;;;;;;;;5091890;28;20056;-73
2022/04/08 10:25:36;;;;;;;7.00;1.10;;;;;;;;;;5080320;28;20060;-73
2022/04/08 10:28:03;;;;;;;7.70;1.20;;;;;;;;;;5083181;28;20043;-73
2022/04/08 10:30:30;;;;;;;10.07;1.38;;;;;;;;;;5083282;28;20055;-73
2022/04/08 10:33:01;;;;;;;3.88;0.82;;;;;;;;;;5078705;28;20101;-73
2022/04/08 10:35:29;;;;;;;7.05;1.00;;;;;;;;;;5086566;28;20048;-73
2022/04/08 10:37:57;;;;;;;5.35;1.13;;;;;;;;;;5079667;28;20063;-73
2022/04/08 10:40:30;;;;;;;8.85;1.10;;;;;;;;;;5115423;27;20048;-73
2022/04/08 10:42:58;;;;;;;8.38;1.30;;;;;;;;;;5076833;28;20040;-73
2022/04/08 10:45:25;;;;;;;6.40;1.15;;;;;;;;;;5119798;27;20071;-73
2022/04/08 10:47:53;;;;;;;12.57;1.23;;;;;;;;;;5083146;28;20109;-73
2022/04/08 10:50:31;;;;;;;13.70;1.48;;;;;;;;;;5077227;28;20056;-73
2022/04/08 10:53:07;;;;;;;9.93;1.77;;;;;;;;;;5086284;28;20062;-73
2022/04/08 10:55:45;;;;;;;10.95;1.55;;;;;;;;;;5120314;27;20048;-73
2022/04/08 10:58:14;;;;;;;9.02;1.50;;;;;;;;;;5087509;28;20613;-73
2022/04/08 11:00:41;;;;;;;9.93;1.40;;;;;;;;;;5079956;28;20056;-73
2022/04/08 11:03:10;;;;;;;10.85;1.52;;;;;;;;;;5082020;28;20048;-73
2022/04/08 11:05:39;;;;;;;10.07;1.30;;;;;;;;;;5085357;28;20048;-73
2022/04/08 11:08:07;;;;;;;8.98;1.10;;;;;;;;;;5082269;28;20048;-73
2022/04/08 11:10:34;;;;;;;13.15;1.38;;;;;;;;;;5076964;28;20055;-73
2022/04/08 11:13:02;;;;;;;9.32;1.35;;;;;;;;;;5111573;27;20052;-73
2022/04/08 11:15:30;;;;;;;11.48;1.50;;;;;;;;;;5076375;28;20390;-73
2022/04/08 11:18:00;;;;;;;9.13;1.60;;;;;;;;;;5084264;28;20169;-73
2022/04/08 11:20:27;;;;;;;8.45;1.50;;;;;;;;;;5081315;28;20139;-73
2022/04/08 11:22:58;;;;;;;6.35;1.25;;;;;;;;;;5080682;28;20048;-73
2022/04/08 11:25:26;;;;;;;8.25;1.33;;;;;;;;;;5080029;28;20056;-73
2022/04/08 11:28:03;;;;;;;10.80;1.40;;;;;;;;;;5077165;28;20040;-73
2022/04/08 11:30:31;;;;;;;9.02;1.55;;;;;;;;;;5116472;27;20121;-73
2022/04/08 11:32:58;;;;;;;17.17;2.40;;;;;;;;;;5081827;28;20056;-73
2022/04/08 11:35:29;;;;;;;8.85;1.48;;;;;;;;;;5078599;28;20083;-73
2022/04/08 11:37:57;;;;;;;15.73;2.38;;;;;;;;;;5081440;28;20109;-73
2022/04/08 11:40:24;;;;;;;11.00;1.50;;;;;;;;;;5083169;28;20089;-72
2022/04/08 11:42:52;;;;;;;13.45;1.73;;;;;;;;;;5078298;28;20445;-73
2022/04/08 11:45:19;;;;;;;14.63;1.92;;;;;;;;;;5074675;28;20044;-73
2022/04/08 11:47:47;;;;;;;13.50;1.30;;;;;;;;;;5074444;28;20382;-73
2022/04/08 11:50:14;;;;;;;9.63;1.80;;;;;;;;;;5079824;28;20067;-73
2022/04/08 11:52:52;;;;;;;9.90;1.75;;;;;;;;;;5075145;28;20160;-73
2022/04/08 11:55:23;;;;;;;6.03;1.35;;;;;;;;;;5076378;28;20056;-73
2022/04/08 11:57:51;;;;;;;10.70;1.85;;;;;;;;;;5077833;28;20059;-73
2022/04/08 12:00:18;;;;;;;9.55;1.48;;;;;;;;;;5076399;28;20121;-74
2022/04/08 12:02:48;;;;;;;7.30;1.60;;;;;;;;;;5076894;28;20066;-73
2022/04/08 12:05:20;;;;;;;11.43;1.80;;;;;;;;;;5077381;28;20129;-73
2022/04/08 12:07:47;;;;;;;8.48;1.30;;;;;;;;;;5075408;28;20057;-73
2022/04/08 12:10:14;;;;;;;8.13;1.63;;;;;;;;;;5075625;28;20048;-73
2022/04/08 12:12:45;;;;;;;12.77;1.73;;;;;;;;;;5108285;27;20079;-73
2022/04/08 12:15:13;;;;;;;9.68;1.60;;;;;;;;;;5073496;28;20080;-73
2022/04/08 12:17:40;;;;;;;4.78;1.10;;;;;;;;;;5075407;28;20633;-73
2022/04/08 12:20:13;;;;;;;8.90;1.08;;;;;;;;;;5072324;28;20062;-75
2022/04/08 12:22:40;;;;;;;7.43;1.33;;;;;;;;;;5074829;28;20134;-73
2022/04/08 12:25:08;;;;;;;6.32;1.20;;;;;;;;;;5073327;28;20075;-73
2022/04/08 12:27:35;;;;;;;8.77;1.20;;;;;;;;;;5076372;28;20060;-74
2022/04/08 12:30:08;;;;;;;9.35;1.23;;;;;;;;;;5073931;28;20137;-74
2022/04/08 12:32:36;;;;;;;6.45;0.90;;;;;;;;;;5075670;28;20049;-74
2022/04/08 12:35:06;;;;;;;7.03;1.13;;;;;;;;;;5073436;28;20272;-73
2022/04/08 12:37:33;;;;;;;8.25;1.35;;;;;;;;;;5075830;28;20052;-73
2022/04/08 12:40:00;;;;;;;7.13;1.40;;;;;;;;;;5074115;28;20056;-73
2022/04/08 12:45:35;;;;;;;6.07;1.50;;;;;;;;;;5310716;22;20045;-73
2022/04/08 12:48:02;;;;;;;6.82;1.17;;;;;;;;;;5034019;28;20068;-73
2022/04/08 12:50:29;;;;;;;11.05;1.45;;;;;;;;;;5034340;28;20491;-73
2022/04/08 12:52:57;;;;;;;8.10;1.52;;;;;;;;;;5035973;28;20537;-73
2022/04/08 12:55:24;;;;;;;11.30;1.20;;;;;;;;;;5036559;28;20052;-73
2022/04/08 12:57:51;;;;;;;9.43;1.17;;;;;;;;;;5036599;28;20086;-73
2022/04/08 13:00:18;;;;;;;8.30;1.63;;;;;;;;;;5033647;28;20045;-73
2022/04/08 13:02:47;;;;;;;3.67;0.98;;;;;;;;;;5037185;28;20065;-74
2022/04/08 13:05:16;;;;;;;6.93;0.90;;;;;;;;;;5033393;28;20053;-74
2022/04/08 13:07:43;;;;;;;5.35;1.38;;;;;;;;;;5035830;28;20049;-73
2022/04/08 13:10:10;;;;;;;8.35;1.88;;;;;;;;;;5039537;28;20069;-74
2022/04/08 13:12:38;;;;;;;14.30;2.05;;;;;;;;;;5037557;28;20381;-74
2022/04/08 13:15:06;;;;;;;6.97;1.70;;;;;;;;;;5039960;28;20053;-73
2022/04/08 13:17:33;;;;;;;10.55;1.63;;;;;;;;;;5040823;28;20060;-73
2022/04/08 13:20:02;;;;;;;12.52;2.03;;;;;;;;;;5039986;28;20064;-73
2022/04/08 13:22:29;;;;;;;10.80;1.95;;;;;;;;;;5042953;28;20045;-73
2022/04/08 13:24:56;;;;;;;5.32;1.20;;;;;;;;;;5040679;28;20064;-74
2022/04/08 13:27:24;;;;;;;9.15;1.50;;;;;;;;;;5041323;28;20053;-74
2022/04/08 13:29:51;;;;;;;9.52;2.10;;;;;;;;;;5038303;28;20099;-73
2022/04/08 13:32:18;;;;;;;9.27;1.80;;;;;;;;;;5042842;28;20057;-73
2022/04/08 13:34:46;;;;;;;9.40;1.90;;;;;;;;;;5035080;28;20136;-73
2022/04/08 13:37:14;;;;;;;9.60;1.75;;;;;;;;;;5035174;28;20049;-73
2022/04/08 13:39:42;;;;;;;12.98;1.80;;;;;;;;;;5039703;28;20049;-73
2022/04/08 13:42:10;;;;;;;9.07;1.50;;;;;;;;;;5042591;28;20045;-73
2022/04/08 13:44:37;;;;;;;8.25;1.35;;;;;;;;;;5038944;28;20057;-73
2022/04/08 13:47:05;;;;;;;7.65;1.42;;;;;;;;;;5041876;28;20103;-73
2022/04/08 13:49:32;;;;;;;6.10;1.60;;;;;;;;;;5038719;28;20612;-74
2022/04/08 13:51:59;;;;;;;6.75;1.42;;;;;;;;;;5041486;28;20049;-74
2022/04/08 13:54:28;;;;;;;9.77;1.48;;;;;;;;;;5042940;28;20553;-74
2022/04/08 13:56:55;;;;;;;5.97;1.27;;;;;;;;;;5043498;28;20057;-74
2022/04/08 13:59:23;;;;;;;9.95;1.90;;;;;;;;;;5046722;28;20052;-74
2022/04/08 14:01:50;;;;;;;5.70;1.55;;;;;;;;;;5045566;28;20057;-74
2022/04/08 14:04:17;;;;;;;10.02;2.00;;;;;;;;;;5045597;28;20064;-74
2022/04/08 14:06:45;;;;;;;12.30;2.08;;;;;;;;;;5036856;28;20061;-75
2022/04/08 14:09:12;;;;;;;10.13;1.90;;;;;;;;;;5037408;28;20088;-75
2022/04/08 14:11:41;;;;;;;7.82;1.65;;;;;;;;;;5032396;28;20432;-74
2022/04/08 14:14:08;;;;;;;7.68;1.60;;;;;;;;;;5031218;28;20058;-74
2022/04/08 14:16:35;;;;;;;7.15;1.90;;;;;;;;;;5043013;28;20052;-74
2022/04/08 14:19:02;;;;;;;10.02;1.88;;;;;;;;;;5041898;28;20054;-74
2022/04/08 14:21:30;;;;;;;11.57;2.38;;;;;;;;;;5035609;28;20044;-74
2022/04/08 14:23:57;;;;;;;9.70;1.65;;;;;;;;;;5036187;28;20059;-74
2022/04/08 14:26:24;;;;;;;10.40;2.10;;;;;;;;;;5040564;28;20052;-74
2022/04/08 14:28:53;;;;;;;14.55;1.65;;;;;;;;;;5037398;28;20049;-73
2022/04/08 14:31:20;;;;;;;7.38;1.73;;;;;;;;;;5035504;28;20079;-73
2022/04/08 14:33:47;;;;;;;10.20;1.70;;;;;;;;;;5041800;28;20063;-73
2022/04/08 14:36:15;;;;;;;10.10;2.00;;;;;;;;;;5038826;28;20564;-73
2022/04/08 14:38:42;;;;;;;7.47;1.85;;;;;;;;;;5034928;28;20115;-73
2022/04/08 14:41:09;;;;;;;10.15;1.88;;;;;;;;;;5037844;28;20075;-73
2022/04/08 14:43:36;;;;;;;7.75;1.70;;;;;;;;;;5035399;28;20057;-73